Time;durP1;ratioP1;P1;durP2;ratioP2;P2;SDS_P1;SDS_P2;PMS_P1;PMS_P2;Temp;Humidity;BMP_temperature;BMP_pressure;BME280_temperature;BME280_humidity;BME280_pressure;Samples;Min_cycle;Max_cycle;Signal;HPM_P1;HPM_P2
2022/09/29 00:00:08;;;;;;;10.80;10.00;;;;;;;7.35;100.00;95267.63;4973920;28;20196;-75
2022/09/29 00:02:33;;;;;;;11.63;10.87;;;;;;;7.34;100.00;95263.44;4974176;28;20212;-75
2022/09/29 00:04:59;;;;;;;10.93;9.97;;;;;;;7.24;100.00;95268.53;4973911;28;20185;-75
2022/09/29 00:07:24;;;;;;;10.50;9.33;;;;;;;7.39;100.00;95266.09;4974117;28;20227;-75
2022/09/29 00:09:49;;;;;;;11.50;10.60;;;;;;;7.37;100.00;95259.53;4974106;28;20220;-75
2022/09/29 00:12:15;;;;;;;11.00;10.30;;;;;;;7.37;100.00;95262.16;4974216;28;20196;-75
2022/09/29 00:14:40;;;;;;;8.53;7.93;;;;;;;7.42;100.00;95257.78;4974155;28;20563;-75
2022/09/29 00:17:05;;;;;;;8.60;7.80;;;;;;;7.41;100.00;95261.41;4973886;28;20279;-76
2022/09/29 00:19:32;;;;;;;8.20;7.60;;;;;;;7.33;100.00;95254.03;4973956;28;20188;-75
2022/09/29 00:21:58;;;;;;;8.40;7.57;;;;;;;7.41;100.00;95248.38;4973708;28;20547;-76
2022/09/29 00:24:23;;;;;;;7.47;6.87;;;;;;;7.40;100.00;95246.03;4973862;28;20188;-75
2022/09/29 00:26:48;;;;;;;7.17;6.67;;;;;;;7.33;100.00;95251.44;4973900;28;20677;-75
2022/09/29 00:29:14;;;;;;;7.23;6.57;;;;;;;7.50;100.00;95246.16;4973747;28;20196;-76
2022/09/29 00:31:39;;;;;;;7.87;7.37;;;;;;;7.39;100.00;95245.25;4973781;28;20336;-75
2022/09/29 00:34:04;;;;;;;8.70;8.10;;;;;;;7.34;100.00;95253.00;4973592;28;20243;-75
2022/09/29 00:36:30;;;;;;;9.33;8.63;;;;;;;7.47;100.00;95246.63;4973852;28;20191;-75
2022/09/29 00:38:56;;;;;;;9.77;9.07;;;;;;;7.58;100.00;95247.53;4972821;28;20668;-75
2022/09/29 00:41:31;;;;;;;9.47;8.77;;;;;;;7.47;100.00;95244.00;4973568;28;20199;-75
2022/09/29 00:44:01;;;;;;;8.93;8.30;;;;;;;7.36;100.00;95244.94;4974093;28;20211;-76
2022/09/29 00:46:47;;;;;;;9.40;8.80;;;;;;;7.35;100.00;95246.78;4973635;28;20258;-75
2022/09/29 00:49:50;;;;;;;9.60;8.97;;;;;;;7.44;100.00;95242.69;4973480;28;20184;-76
2022/09/29 00:52:19;;;;;;;9.37;8.47;;;;;;;7.55;100.00;95235.75;4973955;28;20196;-75
2022/09/29 00:54:51;;;;;;;8.40;7.80;;;;;;;7.58;100.00;95237.09;4972924;28;20303;-76
2022/09/29 00:57:20;;;;;;;8.30;7.53;;;;;;;7.67;100.00;95238.22;4973994;28;20184;-75
2022/09/29 01:00:01;;;;;;;8.93;8.23;;;;;;;7.63;100.00;95240.56;4973346;28;20212;-75
2022/09/29 01:02:29;;;;;;;9.20;8.50;;;;;;;7.57;100.00;95238.94;4973446;28;20224;-76
2022/09/29 01:04:55;;;;;;;8.73;8.13;;;;;;;7.51;100.00;95240.69;4973574;28;20181;-75
2022/09/29 01:07:22;;;;;;;8.60;7.93;;;;;;;7.34;100.00;95234.78;4973456;28;20184;-75
2022/09/29 01:09:50;;;;;;;8.53;7.93;;;;;;;7.31;100.00;95237.84;4973695;28;20196;-76
2022/09/29 01:12:17;;;;;;;9.37;8.63;;;;;;;7.36;100.00;95232.69;4973729;28;20284;-76
2022/09/29 01:14:43;;;;;;;9.80;9.07;;;;;;;7.28;100.00;95227.13;4973376;28;20546;-75
2022/09/29 01:17:08;;;;;;;9.83;8.87;;;;;;;7.38;100.00;95232.47;4973472;28;20195;-75
2022/09/29 01:20:07;;;;;;;8.73;8.13;;;;;;;7.43;100.00;95227.28;4974197;28;20188;-76
2022/09/29 01:22:45;;;;;;;9.10;8.30;;;;;;;7.43;100.00;95222.06;4961440;28;20208;-75
2022/09/29 01:25:37;;;;;;;9.03;7.90;;;;;;;7.36;100.00;95222.25;4977518;28;20191;-75
2022/09/29 01:28:38;;;;;;;8.43;7.60;;;;;;;7.41;100.00;95218.94;4977995;28;20184;-75
2022/09/29 01:31:06;;;;;;;7.20;6.70;;;;;;;7.22;100.00;95225.50;4937234;28;20201;-76
2022/09/29 01:33:53;;;;;;;8.83;8.00;;;;;;;7.31;100.00;95224.81;4976812;28;20235;-76
2022/09/29 01:36:48;;;;;;;7.87;7.17;;;;;;;7.27;100.00;95221.13;4978136;28;20232;-76
2022/09/29 01:39:23;;;;;;;8.17;7.57;;;;;;;7.31;100.00;95222.22;4978564;28;20180;-76
2022/09/29 01:42:01;;;;;;;7.90;7.20;;;;;;;7.34;100.00;95218.34;4977956;28;20192;-75
2022/09/29 01:44:50;;;;;;;9.33;8.53;;;;;;;7.48;100.00;95228.13;4977022;28;20231;-75
2022/09/29 01:47:30;;;;;;;8.23;7.47;;;;;;;7.36;100.00;95227.47;4976460;28;20177;-75
2022/09/29 01:50:11;;;;;;;9.37;8.07;;;;;;;7.38;100.00;95225.44;4976143;28;20264;-75
2022/09/29 01:52:41;;;;;;;8.30;7.70;;;;;;;7.28;100.00;95220.09;4976948;28;20184;-76
2022/09/29 01:55:11;;;;;;;8.43;7.83;;;;;;;7.36;100.00;95230.09;4975783;28;20676;-76
2022/09/29 01:57:49;;;;;;;7.77;7.17;;;;;;;7.45;100.00;95231.25;4968122;28;20661;-75
2022/09/29 02:00:19;;;;;;;8.53;7.83;;;;;;;7.63;100.00;95234.56;4976526;28;20650;-75
2022/09/29 02:02:51;;;;;;;7.80;7.30;;;;;;;7.60;100.00;95235.03;4976610;28;20212;-75
2022/09/29 02:05:31;;;;;;;7.73;7.23;;;;;;;7.71;100.00;95239.31;4976518;28;20189;-75
2022/09/29 02:08:03;;;;;;;6.80;6.30;;;;;;;7.82;100.00;95241.78;4976443;28;20200;-75
2022/09/29 02:10:34;;;;;;;7.57;7.00;;;;;;;7.74;100.00;95242.22;4976533;28;20268;-75
2022/09/29 02:13:05;;;;;;;7.70;7.10;;;;;;;7.74;100.00;95234.41;4976347;28;20177;-75
2022/09/29 02:15:35;;;;;;;7.50;6.90;;;;;;;7.72;100.00;95244.28;4976738;28;20204;-75
2022/09/29 02:18:17;;;;;;;8.00;7.33;;;;;;;7.82;100.00;95243.59;4976183;28;20532;-75
2022/09/29 02:20:45;;;;;;;7.67;6.97;;;;;;;7.67;100.00;95249.44;4958691;28;20192;-76
2022/09/29 02:23:10;;;;;;;7.60;7.00;;;;;;;7.85;100.00;95250.94;4975909;28;20212;-75
2022/09/29 02:25:38;;;;;;;8.27;7.50;;;;;;;7.78;100.00;95250.34;4975283;28;20670;-74
2022/09/29 02:28:05;;;;;;;9.27;8.53;;;;;;;7.63;100.00;95244.97;4975603;28;20268;-75
2022/09/29 02:30:31;;;;;;;8.47;7.77;;;;;;;7.56;100.00;95246.97;4975085;28;20641;-75
2022/09/29 02:32:56;;;;;;;8.23;7.47;;;;;;;7.48;100.00;95249.00;4975159;28;20232;-74
2022/09/29 02:35:22;;;;;;;8.13;7.33;;;;;;;7.43;100.00;95243.72;4974893;28;20193;-74
2022/09/29 02:38:03;;;;;;;7.63;7.03;;;;;;;7.33;100.00;95243.63;4975003;28;20216;-74
2022/09/29 02:40:28;;;;;;;8.27;7.43;;;;;;;7.37;100.00;95243.91;4975396;28;20184;-75
2022/09/29 02:43:08;;;;;;;8.27;7.67;;;;;;;7.33;100.00;95243.63;4975369;28;20318;-74
2022/09/29 02:46:05;;;;;;;8.67;7.93;;;;;;;7.33;100.00;95248.03;4975530;28;20195;-75
2022/09/29 02:48:55;;;;;;;8.60;7.73;;;;;;;7.33;100.00;95245.44;4975275;28;20181;-74
2022/09/29 02:51:37;;;;;;;7.63;7.03;;;;;;;7.52;100.00;95246.69;4975071;28;20200;-74
2022/09/29 02:54:24;;;;;;;9.20;7.43;;;;;;;7.48;100.00;95240.38;4973256;28;20553;-75
2022/09/29 02:57:23;;;;;;;7.87;7.17;;;;;;;7.62;100.00;95235.56;4973277;28;20210;-74
2022/09/29 03:00:10;;;;;;;7.77;7.17;;;;;;;7.47;100.00;95233.59;4974877;28;20176;-74
2022/09/29 03:02:40;;;;;;;8.70;8.00;;;;;;;7.42;100.00;95236.13;4974702;28;21466;-74
2022/09/29 03:05:09;;;;;;;7.93;7.23;;;;;;;7.40;100.00;95231.19;4974909;28;20301;-74
2022/09/29 03:07:36;;;;;;;8.27;7.50;;;;;;;7.48;100.00;95230.75;4974447;28;20191;-74
2022/09/29 03:10:01;;;;;;;8.20;7.50;;;;;;;7.58;100.00;95224.84;4974502;28;20289;-74
2022/09/29 03:12:27;;;;;;;8.27;7.10;;;;;;;7.47;100.00;95223.94;4974761;28;20181;-74
2022/09/29 03:14:52;;;;;;;7.13;6.53;;;;;;;7.55;100.00;95229.75;4974758;28;20203;-74
2022/09/29 03:17:18;;;;;;;7.27;6.67;;;;;;;7.42;100.00;95220.50;4974917;28;20193;-74
2022/09/29 03:19:43;;;;;;;7.20;6.60;;;;;;;7.35;100.00;95210.28;4974597;28;20185;-74
2022/09/29 03:22:08;;;;;;;7.53;7.03;;;;;;;7.51;100.00;95227.66;4957389;28;20208;-74
2022/09/29 03:24:34;;;;;;;7.60;6.90;;;;;;;7.47;100.00;95215.34;4974964;28;20232;-74
2022/09/29 03:27:00;;;;;;;8.37;7.67;;;;;;;7.40;100.00;95206.94;4974559;28;20185;-74
2022/09/29 03:29:25;;;;;;;7.87;7.03;;;;;;;7.22;100.00;95217.69;4974535;28;20191;-75
2022/09/29 03:31:51;;;;;;;7.40;6.70;;;;;;;7.30;100.00;95218.03;4974236;28;20188;-75
2022/09/29 03:34:16;;;;;;;7.97;7.27;;;;;;;7.30;100.00;95209.44;4974140;28;20233;-74
2022/09/29 03:36:41;;;;;;;6.63;6.13;;;;;;;7.30;100.00;95210.22;4957965;28;20185;-75
2022/09/29 03:39:07;;;;;;;7.10;6.53;;;;;;;7.19;100.00;95205.91;4974357;28;20189;-74
2022/09/29 03:41:33;;;;;;;7.13;6.43;;;;;;;7.18;100.00;95204.38;4973928;28;20622;-74
2022/09/29 03:43:58;;;;;;;6.60;6.00;;;;;;;7.07;100.00;95205.28;4973954;28;20180;-75
2022/09/29 03:46:24;;;;;;;6.23;5.83;;;;;;;7.04;100.00;95205.75;4973537;28;20177;-74
2022/09/29 03:48:49;;;;;;;6.43;6.03;;;;;;;7.04;100.00;95198.72;4973876;28;20641;-74
2022/09/29 03:51:15;;;;;;;7.53;7.03;;;;;;;6.98;100.00;95204.91;4974290;28;20243;-74
2022/09/29 03:53:40;;;;;;;6.63;6.03;;;;;;;6.99;100.00;95198.69;4973219;28;20327;-74
2022/09/29 03:56:06;;;;;;;7.50;6.77;;;;;;;6.97;100.00;95200.72;4973302;28;20218;-75
2022/09/29 03:58:31;;;;;;;6.90;6.37;;;;;;;6.87;100.00;95194.59;4956675;28;20538;-75
2022/09/29 04:00:56;;;;;;;6.57;6.17;;;;;;;6.86;100.00;95201.63;4974105;28;20601;-74
2022/09/29 04:03:22;;;;;;;7.60;7.10;;;;;;;6.84;100.00;95195.91;4973519;28;20220;-74
2022/09/29 04:05:48;;;;;;;7.93;7.43;;;;;;;6.85;100.00;95201.91;4973786;28;20192;-75
2022/09/29 04:08:14;;;;;;;7.70;7.20;;;;;;;6.92;100.00;95198.06;4956145;28;20195;-75
2022/09/29 04:10:39;;;;;;;7.47;6.87;;;;;;;6.87;100.00;95198.00;4974162;28;20189;-74
2022/09/29 04:13:06;;;;;;;7.47;6.97;;;;;;;6.89;100.00;95192.56;4973764;28;20245;-75
2022/09/29 04:15:31;;;;;;;7.40;6.90;;;;;;;7.01;100.00;95198.44;4973852;28;20661;-74
2022/09/29 04:17:57;;;;;;;7.90;7.40;;;;;;;7.02;100.00;95185.16;4973655;28;20185;-75
2022/09/29 04:20:22;;;;;;;8.53;7.73;;;;;;;7.07;100.00;95190.44;4973738;28;20724;-74
2022/09/29 04:22:48;;;;;;;7.47;6.97;;;;;;;6.98;100.00;95197.09;4973894;28;20212;-74
2022/09/29 04:25:13;;;;;;;8.67;7.80;;;;;;;6.97;100.00;95200.72;4973408;28;20193;-74
2022/09/29 04:27:38;;;;;;;9.77;8.80;;;;;;;6.87;100.00;95194.59;4973635;28;20177;-75
2022/09/29 04:30:05;;;;;;;8.40;7.80;;;;;;;6.85;100.00;95201.91;4956341;28;20676;-75
2022/09/29 04:32:30;;;;;;;9.83;8.83;;;;;;;6.52;100.00;95207.97;4973259;28;20240;-75
2022/09/29 04:34:56;;;;;;;9.47;7.63;;;;;;;6.74;100.00;95208.78;4973290;28;20247;-75
2022/09/29 04:37:22;;;;;;;8.70;8.00;;;;;;;6.63;100.00;95207.09;4972874;28;20183;-75
2022/09/29 04:39:47;;;;;;;7.77;7.17;;;;;;;6.62;100.00;95205.50;4972446;28;20185;-75
2022/09/29 04:42:13;;;;;;;8.50;7.90;;;;;;;6.38;100.00;95220.53;4972937;28;20212;-75
2022/09/29 04:44:38;;;;;;;9.13;8.27;;;;;;;6.41;100.00;95207.03;4974091;28;20196;-75
2022/09/29 04:47:03;;;;;;;11.57;10.57;;;;;;;6.29;100.00;95218.56;4973778;28;20193;-76
2022/09/29 04:49:29;;;;;;;12.70;10.37;;;;;;;6.26;100.00;95225.03;4972598;28;20671;-77
2022/09/29 04:51:55;;;;;;;12.53;11.43;;;;;;;6.36;100.00;95225.16;4973495;28;20638;-75
2022/09/29 04:54:20;;;;;;;12.93;11.83;;;;;;;6.42;100.00;95223.41;4972503;28;20201;-75
2022/09/29 04:56:49;;;;;;;11.70;10.70;;;;;;;6.49;100.00;95226.66;4957712;28;20216;-75
2022/09/29 04:59:16;;;;;;;12.47;11.37;;;;;;;6.52;100.00;95229.56;4976752;28;20220;-75
2022/09/29 05:01:42;;;;;;;13.13;11.97;;;;;;;6.55;100.00;95229.09;4977166;28;20215;-75
2022/09/29 05:04:08;;;;;;;13.60;11.67;;;;;;;6.46;100.00;95225.34;4977277;28;20189;-77
2022/09/29 05:06:38;;;;;;;13.90;12.70;;;;;;;6.57;100.00;95229.66;4977242;28;20195;-76
2022/09/29 05:09:04;;;;;;;13.03;11.73;;;;;;;6.41;100.00;95227.06;4976784;28;20591;-76
2022/09/29 05:11:29;;;;;;;13.90;12.80;;;;;;;6.37;100.00;95229.34;4977419;28;20185;-76
2022/09/29 05:13:55;;;;;;;14.30;12.67;;;;;;;6.37;100.00;95234.56;4977653;28;20189;-76
2022/09/29 05:16:20;;;;;;;13.77;12.37;;;;;;;6.18;100.00;95239.22;4976972;28;20184;-77
2022/09/29 05:18:45;;;;;;;14.93;13.57;;;;;;;6.22;100.00;95240.31;4976720;28;20571;-76
2022/09/29 05:21:11;;;;;;;12.90;11.70;;;;;;;6.13;100.00;95240.97;4976525;28;20512;-76
2022/09/29 05:23:36;;;;;;;14.07;12.50;;;;;;;6.22;100.00;95242.94;4959336;28;20196;-76
2022/09/29 05:26:07;;;;;;;13.90;12.70;;;;;;;6.19;100.00;95248.59;4976949;28;20200;-77
2022/09/29 05:28:33;;;;;;;15.33;13.83;;;;;;;6.28;100.00;95248.19;4976258;28;20331;-76
2022/09/29 05:31:03;;;;;;;15.33;14.03;;;;;;;6.46;100.00;95242.75;4976977;28;20673;-76
2022/09/29 05:33:28;;;;;;;14.63;13.43;;;;;;;6.50;100.00;95246.44;4976497;28;20437;-75
2022/09/29 05:35:54;;;;;;;14.53;13.27;;;;;;;6.36;100.00;95247.78;4959842;28;20283;-76
2022/09/29 05:38:19;;;;;;;15.17;13.90;;;;;;;6.19;100.00;95242.59;4977268;28;20233;-75
2022/09/29 05:40:45;;;;;;;15.23;13.73;;;;;;;6.25;100.00;95246.84;4977963;28;20271;-76
2022/09/29 05:43:10;;;;;;;13.07;11.87;;;;;;;6.36;100.00;95242.59;4976048;28;20666;-76
2022/09/29 05:45:36;;;;;;;13.37;11.87;;;;;;;6.53;100.00;95238.16;4976773;28;20658;-76
2022/09/29 05:48:01;;;;;;;11.67;10.63;;;;;;;6.55;100.00;95242.09;4976104;28;20195;-76
2022/09/29 05:50:26;;;;;;;12.63;11.33;;;;;;;6.53;100.00;95246.75;4976633;28;20271;-77
2022/09/29 05:52:52;;;;;;;17.13;13.50;;;;;;;6.58;100.00;95251.25;4976007;28;20219;-76
2022/09/29 05:55:17;;;;;;;11.67;10.57;;;;;;;6.55;100.00;95246.53;4975910;28;20196;-76
2022/09/29 05:57:46;;;;;;;12.40;11.23;;;;;;;6.55;100.00;95242.09;4976066;28;20238;-76
2022/09/29 06:00:12;;;;;;;11.20;10.20;;;;;;;6.50;100.00;95249.84;4976108;28;20188;-75
2022/09/29 06:02:37;;;;;;;13.53;12.10;;;;;;;6.73;100.00;95243.66;4976435;28;20209;-76
2022/09/29 06:08:22;;;;;;;19.85;16.05;;;;;;;6.60;100.00;95260.41;4323870;23;20921;31
2022/09/29 06:10:47;;;;;;;14.23;11.70;;;;;;;6.85;100.00;95252.16;4934686;29;20949;-70
2022/09/29 06:13:13;;;;;;;13.60;12.07;;;;;;;6.95;100.00;95243.69;4938418;29;20253;-69
2022/09/29 06:15:38;;;;;;;19.47;14.87;;;;;;;6.93;100.00;95248.34;4953604;29;20208;-73
2022/09/29 06:18:03;;;;;;;16.77;13.60;;;;;;;6.99;100.00;95260.41;4956299;29;20192;-69
2022/09/29 06:20:29;;;;;;;12.87;11.57;;;;;;;7.10;100.00;95255.06;4956429;29;20193;-69
2022/09/29 06:22:55;;;;;;;11.77;10.67;;;;;;;7.11;100.00;95261.06;4956306;29;20692;-69
2022/09/29 06:25:21;;;;;;;15.20;13.83;;;;;;;7.18;100.00;95255.69;4942003;29;20194;-69
2022/09/29 06:27:46;;;;;;;15.60;14.23;;;;;;;7.40;100.00;95252.03;4951740;29;20649;-69
2022/09/29 06:30:12;;;;;;;17.00;15.50;;;;;;;7.38;100.00;95259.31;4953908;29;20186;-69
2022/09/29 06:32:38;;;;;;;16.77;15.20;;;;;;;7.34;100.00;95257.44;4942165;29;20638;-71
2022/09/29 06:37:48;;;;;;;10.70;9.60;;;;;;;7.73;100.00;95273.75;4955569;29;20196;-69
2022/09/29 06:40:13;;;;;;;11.57;9.90;;;;;;;7.78;100.00;95281.63;4945480;29;20273;-69
2022/09/29 06:42:38;;;;;;;11.93;10.80;;;;;;;7.65;100.00;95288.00;4942417;29;20206;-69
2022/09/29 06:45:04;;;;;;;11.33;10.33;;;;;;;7.62;100.00;95285.13;4937052;29;20257;-69
2022/09/29 06:47:30;;;;;;;11.77;10.77;;;;;;;7.65;100.00;95290.63;4949525;29;20177;-69
2022/09/29 06:49:55;;;;;;;17.10;15.77;;;;;;;7.77;100.00;95285.28;4936810;29;20222;-68
2022/09/29 06:52:21;;;;;;;17.33;16.03;;;;;;;7.67;100.00;95287.78;4936614;29;20299;-69
2022/09/29 06:54:46;;;;;;;14.30;13.20;;;;;;;7.59;100.00;95285.59;4936698;29;20197;-68
2022/09/29 06:57:12;;;;;;;10.00;9.30;;;;;;;7.66;100.00;95278.38;4953134;29;20205;-68
2022/09/29 06:59:38;;;;;;;8.93;8.10;;;;;;;7.96;100.00;95291.72;4937168;29;20683;-68
2022/09/29 07:02:03;;;;;;;8.53;7.83;;;;;;;7.90;100.00;95290.09;4944467;29;20560;-66
2022/09/29 07:04:29;;;;;;;8.77;8.13;;;;;;;7.94;100.00;95288.56;4955261;29;20264;-66
2022/09/29 07:06:54;;;;;;;15.90;14.83;;;;;;;7.89;100.00;95289.31;4955395;29;20272;-66
2022/09/29 07:09:19;;;;;;;14.83;13.80;;;;;;;8.31;100.00;95289.44;4937434;29;20229;-66
2022/09/29 07:11:48;;;;;;;14.23;13.17;;;;;;;8.37;100.00;95289.50;4928545;29;20213;-66
2022/09/29 07:14:15;;;;;;;18.20;17.00;;;;;;;8.25;100.00;95290.41;4954988;29;20215;-66
2022/09/29 07:16:41;;;;;;;8.00;7.30;;;;;;;8.21;100.00;95286.72;4954953;29;20215;-66
2022/09/29 07:19:06;;;;;;;6.60;6.00;;;;;;;8.49;100.00;95280.44;4953303;28;20219;-66
2022/09/29 07:21:31;;;;;;;7.03;6.43;;;;;;;8.65;100.00;95289.97;4953735;29;20685;-66
2022/09/29 07:23:57;;;;;;;9.10;8.50;;;;;;;8.57;100.00;95292.28;4945099;29;20233;-66
2022/09/29 07:26:22;;;;;;;9.27;8.47;;;;;;;9.01;100.00;95290.19;4954829;29;20210;-66
2022/09/29 07:28:48;;;;;;;7.97;7.37;;;;;;;9.14;100.00;95293.13;4955128;29;20228;-66
2022/09/29 07:31:17;;;;;;;7.17;6.57;;;;;;;9.07;100.00;95289.97;4944866;29;20241;-66
2022/09/29 07:33:44;;;;;;;8.20;7.50;;;;;;;9.21;100.00;95290.28;4950093;29;20197;-67
2022/09/29 07:36:10;;;;;;;9.27;8.47;;;;;;;9.16;100.00;95288.44;4953582;29;20182;-66
2022/09/29 07:38:35;;;;;;;8.23;7.43;;;;;;;8.98;100.00;95303.75;4950975;29;20200;-66
2022/09/29 07:41:02;;;;;;;9.77;9.07;;;;;;;8.91;100.00;95298.78;4938084;29;20305;-68
2022/09/29 07:43:28;;;;;;;9.10;8.43;;;;;;;9.22;100.00;95306.78;4935938;29;20205;-67
2022/09/29 07:45:54;;;;;;;7.93;7.20;;;;;;;8.96;100.00;95292.78;4948530;29;20224;-67
2022/09/29 07:48:19;;;;;;;6.80;6.27;;;;;;;8.97;100.00;95295.13;4954680;29;20220;-67
2022/09/29 07:50:45;;;;;;;7.80;7.23;;;;;;;8.92;100.00;95295.09;4943285;29;20192;-67
2022/09/29 07:53:11;;;;;;;9.73;7.03;;;;;;;9.06;100.00;95303.28;4953397;29;20182;-67
2022/09/29 07:55:37;;;;;;;10.63;9.87;;;;;;;9.09;100.00;95302.78;4937026;29;20240;-67
2022/09/29 07:58:03;;;;;;;13.73;12.93;;;;;;;9.31;100.00;95305.22;4935913;29;20194;-67
2022/09/29 08:00:30;;;;;;;11.57;10.77;;;;;;;9.53;100.00;95304.03;4939319;29;20694;-67
2022/09/29 08:03:01;;;;;;;13.10;11.90;;;;;;;9.47;100.00;95306.91;4954418;29;20201;-67
2022/09/29 08:05:27;;;;;;;13.13;12.03;;;;;;;9.66;100.00;95312.44;4945948;29;20186;-67
2022/09/29 08:07:53;;;;;;;8.80;7.93;;;;;;;10.01;100.00;95315.16;4935340;29;20190;-68
2022/09/29 08:10:19;;;;;;;6.83;6.33;;;;;;;9.78;100.00;95308.56;4952812;29;20240;-67
2022/09/29 08:12:44;;;;;;;6.60;6.03;;;;;;;9.78;100.00;95305.94;4953997;29;20193;-68
2022/09/29 08:15:10;;;;;;;15.63;14.40;;;;;;;10.03;100.00;95308.63;4949172;29;20273;-67
2022/09/29 08:17:35;;;;;;;11.43;10.60;;;;;;;10.06;100.00;95309.94;4936018;29;20213;-67
2022/09/29 08:20:01;;;;;;;7.63;7.13;;;;;;;10.21;100.00;95311.81;4935623;29;20190;-67
2022/09/29 08:22:26;;;;;;;11.00;10.23;;;;;;;10.15;100.00;95313.63;4953611;29;20197;-67
2022/09/29 08:24:51;;;;;;;12.10;11.37;;;;;;;10.35;100.00;95321.53;4951201;29;20201;-68
2022/09/29 08:27:17;;;;;;;12.53;11.60;;;;;;;10.64;100.00;95321.03;4953479;29;20189;-69
2022/09/29 08:29:42;;;;;;;18.97;14.37;;;;;;;10.25;100.00;95313.66;4949066;28;20209;-70
2022/09/29 08:32:07;;;;;;;25.83;17.43;;;;;;;10.33;100.00;95318.38;4947421;29;20197;-70
2022/09/29 08:34:33;;;;;;;21.87;13.63;;;;;;;10.67;96.65;95321.28;4937924;29;20273;-68
2022/09/29 08:36:58;;;;;;;35.70;18.07;;;;;;;10.09;100.00;95327.75;4933371;29;20677;-69
2022/09/29 08:39:23;;;;;;;16.07;11.53;;;;;;;10.73;97.24;95324.69;4953875;29;20191;-68
2022/09/29 08:42:01;;;;;;;16.90;11.77;;;;;;;10.95;95.34;95327.03;4952905;29;20211;-69
2022/09/29 08:44:39;;;;;;;7.60;7.00;;;;;;;10.26;96.39;95335.38;4940961;29;20185;-68
2022/09/29 08:47:24;;;;;;;6.63;6.23;;;;;;;10.04;99.27;95325.09;4937942;29;20178;-69
2022/09/29 08:50:01;;;;;;;7.37;6.97;;;;;;;10.86;95.51;95339.09;4938785;29;20225;-69
2022/09/29 08:52:32;;;;;;;7.60;7.13;;;;;;;10.68;95.21;95341.19;4938670;29;20166;-69
2022/09/29 08:55:18;;;;;;;12.50;11.77;;;;;;;11.12;90.88;95338.81;4939148;29;20174;-69
2022/09/29 08:57:45;;;;;;;13.63;12.80;;;;;;;11.23;90.32;95342.19;4925224;29;20542;-69
2022/09/29 09:00:13;;;;;;;12.27;11.47;;;;;;;11.53;90.34;95336.88;4938635;29;20185;-69
2022/09/29 09:02:58;;;;;;;29.33;27.73;;;;;;;11.24;89.44;95339.31;4937165;29;20348;-69
2022/09/29 09:06:13;;;;;;;8.30;7.67;;;;;;;11.00;91.20;95346.16;4938550;29;20181;-69
2022/09/29 09:09:11;;;;;;;7.17;6.77;;;;;;;11.49;89.27;95337.66;4878865;29;20621;-69
2022/09/29 09:11:47;;;;;;;6.10;5.77;;;;;;;11.94;88.51;95340.13;4860395;29;20562;-69
2022/09/29 09:14:39;;;;;;;6.17;5.77;;;;;;;11.89;88.40;95339.38;4860900;29;20593;-69
2022/09/29 09:17:26;;;;;;;7.30;6.90;;;;;;;11.92;88.47;95341.47;4872321;29;20196;-69
2022/09/29 09:20:21;;;;;;;13.70;12.80;;;;;;;12.27;85.88;95346.50;4861713;29;20197;-69
2022/09/29 09:22:57;;;;;;;8.80;8.30;;;;;;;11.83;86.83;95349.09;4861380;29;20256;-69
2022/09/29 09:25:31;;;;;;;11.70;10.93;;;;;;;11.77;88.10;95362.50;4861474;29;20280;-69
2022/09/29 09:28:17;;;;;;;43.93;41.60;;;;;;;11.56;89.28;95370.44;4870620;29;20203;-69
2022/09/29 09:31:04;;;;;;;54.37;51.47;;;;;;;11.02;91.26;95367.66;4875723;29;20220;-69
2022/09/29 09:33:33;;;;;;;9.83;9.33;;;;;;;12.04;88.51;95368.16;4871314;29;20200;-69
2022/09/29 09:36:22;;;;;;;9.07;8.60;;;;;;;12.04;87.43;95370.78;4873911;29;20862;-69
2022/09/29 09:38:57;;;;;;;34.77;32.87;;;;;;;12.12;87.34;95369.44;4890473;29;20197;-70
2022/09/29 09:41:25;;;;;;;47.33;44.83;;;;;;;12.49;85.29;95373.16;4938037;29;20623;-69
2022/09/29 09:44:14;;;;;;;42.53;40.33;;;;;;;12.67;83.30;95377.00;4937506;29;20186;-69
2022/09/29 09:46:50;;;;;;;38.80;36.57;;;;;;;12.37;84.87;95374.59;4945858;29;20197;-69
2022/09/29 09:49:36;;;;;;;73.60;69.67;;;;;;;12.84;82.92;95373.97;4940017;29;20181;-69
2022/09/29 09:52:08;;;;;;;85.33;80.83;;;;;;;12.96;82.09;95361.25;4938910;29;20204;-69
2022/09/29 09:54:37;;;;;;;63.37;60.10;;;;;;;12.76;82.86;95369.31;4956262;29;20177;-69
2022/09/29 09:57:12;;;;;;;32.17;30.27;;;;;;;12.88;82.74;95364.47;4947587;29;20257;-70
2022/09/29 09:59:59;;;;;;;30.53;28.90;;;;;;;12.59;82.68;95364.44;4944837;29;20180;-69
2022/09/29 10:02:24;;;;;;;34.93;33.03;;;;;;;13.18;81.42;95368.72;4936851;29;20226;-69
2022/09/29 10:04:52;;;;;;;46.30;43.73;;;;;;;13.13;80.08;95366.94;4941870;29;20293;-69
2022/09/29 10:07:23;;;;;;;82.13;77.53;;;;;;;12.65;82.09;95363.34;4936939;29;20701;-69
2022/09/29 10:09:49;;;;;;;112.27;106.23;;;;;;;12.45;81.85;95372.16;4949351;29;20287;-69
2022/09/29 10:12:20;;;;;;;91.37;86.43;;;;;;;13.30;79.70;95372.56;4940177;29;20202;-70
2022/09/29 10:15:16;;;;;;;112.17;106.00;;;;;;;13.34;78.69;95362.25;4937370;29;20714;-69
2022/09/29 10:17:48;;;;;;;91.90;87.03;;;;;;;13.32;78.15;95367.78;4948708;29;20192;-69
2022/09/29 10:20:30;;;;;;;93.23;88.27;;;;;;;12.95;78.66;95370.22;4939826;29;20403;-69
2022/09/29 10:23:18;;;;;;;39.17;36.87;;;;;;;12.93;77.40;95368.94;4935877;29;20212;-69
2022/09/29 10:25:54;;;;;;;43.10;40.63;;;;;;;13.39;75.01;95361.41;4927732;29;20240;-70
2022/09/29 10:28:21;;;;;;;22.67;21.17;;;;;;;13.43;72.56;95363.19;4954909;29;20216;-69
2022/09/29 10:30:47;;;;;;;16.17;15.27;;;;;;;12.80;74.28;95363.25;4937856;29;20198;-69
2022/09/29 10:33:20;;;;;;;31.60;29.77;;;;;;;13.06;76.09;95369.06;4951034;29;20263;-69
2022/09/29 10:35:47;;;;;;;26.57;25.13;;;;;;;13.20;73.29;95375.28;4953654;29;20646;-69
2022/09/29 10:38:22;;;;;;;27.30;25.73;;;;;;;12.79;75.10;95366.91;4947200;29;20193;-69
2022/09/29 10:41:02;;;;;;;17.63;16.67;;;;;;;12.73;76.55;95373.28;4942554;29;20555;-69
2022/09/29 10:43:38;;;;;;;14.63;13.70;;;;;;;13.13;76.34;95380.09;4937583;29;20196;-69
2022/09/29 10:46:05;;;;;;;20.67;19.50;;;;;;;12.86;75.99;95374.50;4953076;29;20228;-69
2022/09/29 10:48:32;;;;;;;19.00;17.70;;;;;;;13.25;73.51;95367.34;4954357;29;20572;-69
2022/09/29 10:51:02;;;;;;;26.60;24.97;;;;;;;12.90;74.63;95372.88;4954458;29;20181;-70
2022/09/29 10:53:42;;;;;;;37.30;35.10;;;;;;;13.04;75.48;95375.69;4941987;29;20462;-69
2022/09/29 10:56:26;;;;;;;16.90;15.93;;;;;;;12.68;75.22;95373.31;4937555;29;20194;-69
2022/09/29 10:58:54;;;;;;;18.67;17.70;;;;;;;12.97;76.25;95377.84;4936400;29;20261;-69
2022/09/29 11:01:20;;;;;;;61.00;57.57;;;;;;;13.37;74.61;95374.88;4951617;29;20193;-69
2022/09/29 11:03:54;;;;;;;45.97;43.07;;;;;;;13.00;75.26;95370.16;4941774;29;20197;-69
2022/09/29 11:06:31;;;;;;;28.23;26.53;;;;;;;13.20;73.86;95374.50;4955040;29;20209;-69
2022/09/29 11:09:01;;;;;;;33.43;31.47;;;;;;;13.23;74.59;95369.47;4949303;29;20212;-70
2022/09/29 11:11:30;;;;;;;43.77;41.20;;;;;;;13.60;73.34;95370.66;4935190;29;20519;-69
2022/09/29 11:13:58;;;;;;;20.33;19.10;;;;;;;13.48;72.62;95372.91;4937070;29;20198;-69
2022/09/29 11:16:32;;;;;;;22.17;20.83;;;;;;;12.90;74.29;95375.50;4947302;29;20666;-69
2022/09/29 11:19:13;;;;;;;39.63;37.33;;;;;;;12.96;75.08;95366.53;4954673;29;20191;-69
2022/09/29 11:21:52;;;;;;;21.57;20.33;;;;;;;13.32;72.37;95372.25;4937407;29;20643;-69
2022/09/29 11:24:29;;;;;;;23.53;22.07;;;;;;;13.67;70.26;95374.53;4940569;29;20189;-70
2022/09/29 11:27:27;;;;;;;28.93;27.07;;;;;;;13.65;69.20;95373.28;4939666;29;20170;-70
2022/09/29 11:30:06;;;;;;;15.27;14.40;;;;;;;13.52;68.01;95376.56;4938117;29;20178;-71
2022/09/29 11:32:53;;;;;;;16.83;15.83;;;;;;;13.29;70.39;95384.16;4933646;29;20270;-71
2022/09/29 11:35:37;;;;;;;42.97;40.37;;;;;;;13.78;70.46;95380.47;4952237;29;20379;-71
2022/09/29 11:38:30;;;;;;;28.07;26.43;;;;;;;13.84;69.42;95383.84;4949409;29;20229;-71
2022/09/29 11:41:08;;;;;;;43.50;41.10;;;;;;;13.42;71.59;95376.66;4944390;29;20198;-71
2022/09/29 11:43:59;;;;;;;55.20;52.30;;;;;;;13.85;70.19;95383.56;4954440;29;20208;-71
2022/09/29 11:46:44;;;;;;;24.33;22.93;;;;;;;14.50;68.00;95379.31;4944668;29;20235;-71